Time;durP1;ratioP1;P1;durP2;ratioP2;P2;SDS_P1;SDS_P2;PMS_P1;PMS_P2;Temp;Humidity;BMP_temperature;BMP_pressure;BME280_temperature;BME280_humidity;BME280_pressure;Samples;Min_cycle;Max_cycle;Signal;HPM_P1;HPM_P2
2022/10/03 00:02:11;;;;;;;0.50;0.50;;;;;;;12.29;100.00;97259.84;4952719;29;20055;-83
2022/10/03 00:04:47;;;;;;;0.50;0.50;;;;;;;12.33;100.00;97251.91;4952558;29;20043;-83
2022/10/03 00:07:55;;;;;;;0.50;0.50;;;;;;;12.35;100.00;97253.22;4945875;29;20644;-84
2022/10/03 00:10:28;;;;;;;0.50;0.50;;;;;;;12.35;100.00;97245.09;4894968;29;20060;-84
2022/10/03 00:13:13;;;;;;;0.50;0.50;;;;;;;12.37;100.00;97242.13;4902118;29;20381;-82
2022/10/03 00:15:52;;;;;;;0.50;0.50;;;;;;;12.38;100.00;97230.19;4899348;29;20515;-84
2022/10/03 00:19:01;;;;;;;0.50;0.50;;;;;;;12.41;100.00;97229.59;4894842;29;20735;-84
2022/10/03 00:22:04;;;;;;;0.40;0.40;;;;;;;12.42;100.00;97228.50;4857060;29;20053;-83
2022/10/03 00:24:52;;;;;;;0.40;0.40;;;;;;;12.43;100.00;97216.59;4870551;29;20063;-82
2022/10/03 00:27:30;;;;;;;0.40;0.40;;;;;;;12.44;100.00;97223.59;4875832;29;20068;-83
2022/10/03 00:30:09;;;;;;;0.40;0.40;;;;;;;12.47;100.00;97217.56;4876032;29;20119;-84
2022/10/03 00:33:08;;;;;;;0.40;0.40;;;;;;;12.48;100.00;97202.97;4876521;29;20057;-83
2022/10/03 00:35:48;;;;;;;0.40;0.40;;;;;;;12.52;100.00;97206.66;4876225;29;20144;-85
2022/10/03 00:38:53;;;;;;;0.45;0.45;;;;;;;12.56;100.00;97209.56;4876633;29;20089;-83
2022/10/03 00:41:57;;;;;;;0.50;0.50;;;;;;;12.59;100.00;97198.13;4870559;29;20060;-82
2022/10/03 00:44:39;;;;;;;0.45;0.45;;;;;;;12.61;100.00;97187.81;4876997;29;20056;-82
2022/10/03 00:47:44;;;;;;;0.40;0.40;;;;;;;12.66;100.00;97190.41;4898856;29;20152;-84
2022/10/03 00:50:22;;;;;;;0.40;0.40;;;;;;;12.68;100.00;97190.09;4891543;29;20059;-83
2022/10/03 00:53:29;;;;;;;0.40;0.40;;;;;;;12.69;100.00;97175.47;4898809;29;20104;-84
2022/10/03 00:56:25;;;;;;;0.50;0.50;;;;;;;12.74;100.00;97183.50;4915006;29;20052;-83
2022/10/03 00:59:12;;;;;;;0.43;0.43;;;;;;;12.75;100.00;97188.59;4963000;28;20067;-85
2022/10/03 01:01:47;;;;;;;0.45;0.45;;;;;;;12.80;100.00;97161.41;4993363;28;20058;-84
2022/10/03 01:04:38;;;;;;;0.50;0.50;;;;;;;12.86;100.00;97155.88;4992675;28;20042;-84
2022/10/03 01:07:37;;;;;;;0.43;0.43;;;;;;;12.87;100.00;97168.34;4985009;28;20404;-83
2022/10/03 01:10:04;;;;;;;0.50;0.50;;;;;;;12.91;100.00;97153.91;4919744;29;20048;-84
2022/10/03 01:13:02;;;;;;;0.45;0.45;;;;;;;12.97;100.00;97160.78;4932457;29;20063;-83
2022/10/03 01:15:41;;;;;;;0.40;0.40;;;;;;;12.98;100.00;97139.91;4916732;29;20240;-82
2022/10/03 01:18:20;;;;;;;0.40;0.40;;;;;;;13.00;100.00;97133.09;4932378;29;20043;-84
2022/10/03 01:21:28;;;;;;;0.40;0.40;;;;;;;13.03;100.00;97128.97;4931959;29;20059;-83
2022/10/03 01:24:25;;;;;;;0.40;0.40;;;;;;;13.04;100.00;97113.50;4932006;29;20087;-84
2022/10/03 01:26:56;;;;;;;0.50;0.50;;;;;;;13.05;100.00;97110.50;4931731;29;20062;-83
2022/10/03 01:32:32;;;;;;;0.50;0.50;;;;;;;13.07;100.00;97094.78;4932199;29;20059;-84
2022/10/03 01:35:11;;;;;;;0.40;0.40;;;;;;;13.12;100.00;97104.69;4931957;29;20052;-83
2022/10/03 01:38:00;;;;;;;0.40;0.40;;;;;;;13.14;100.00;97105.16;4932229;29;20044;-83
2022/10/03 01:40:47;;;;;;;0.43;0.43;;;;;;;13.16;100.00;97101.03;4931877;29;20048;-83
2022/10/03 01:43:19;;;;;;;0.40;0.40;;;;;;;13.19;100.00;97102.31;4931565;29;20047;-83
2022/10/03 01:46:08;;;;;;;0.50;0.50;;;;;;;13.20;100.00;97079.56;4942856;28;20066;-84
2022/10/03 01:48:44;;;;;;;0.40;0.40;;;;;;;13.20;100.00;97077.66;4991134;28;20089;-84
2022/10/03 01:51:15;;;;;;;0.50;0.50;;;;;;;13.21;100.00;97073.81;4991988;28;20053;-83
2022/10/03 01:53:45;;;;;;;0.50;0.50;;;;;;;13.24;100.00;97091.38;4990481;28;20137;-83
2022/10/03 01:56:43;;;;;;;0.40;0.40;;;;;;;13.26;100.00;97091.06;4991174;28;20101;-83
2022/10/03 01:59:20;;;;;;;0.40;0.40;;;;;;;13.27;100.00;97068.31;4990298;28;20057;-83
2022/10/03 02:01:57;;;;;;;0.50;0.50;;;;;;;13.31;100.00;97089.06;4989470;28;20501;-83
2022/10/03 02:04:43;;;;;;;0.45;0.45;;;;;;;13.34;100.00;97091.16;4989793;28;20046;-84
2022/10/03 02:07:31;;;;;;;0.47;0.47;;;;;;;13.33;100.00;97094.97;4991157;28;20049;-83
2022/10/03 02:09:58;;;;;;;0.40;0.40;;;;;;;13.37;100.00;97084.34;4991147;28;20050;-84
2022/10/03 02:12:45;;;;;;;0.40;0.40;;;;;;;13.41;100.00;97077.97;4990689;28;20061;-84
2022/10/03 02:15:16;;;;;;;0.40;0.40;;;;;;;13.41;100.00;97077.16;4974351;28;20046;-82
2022/10/03 02:18:47;;;;;;;0.40;0.40;;;;;;;13.43;100.00;97089.28;4991368;28;20394;-84
2022/10/03 02:21:20;;;;;;;0.40;0.40;;;;;;;13.44;100.00;97090.09;4962052;28;20043;-84
2022/10/03 02:23:49;;;;;;;0.40;0.40;;;;;;;13.41;100.00;97088.81;4973757;28;20053;-83
2022/10/03 02:26:47;;;;;;;0.30;0.30;;;;;;;13.46;100.00;97084.38;4991180;28;20050;-83
2022/10/03 02:29:49;;;;;;;0.40;0.40;;;;;;;13.44;100.00;97080.06;4991710;28;20100;-83
2022/10/03 02:32:46;;;;;;;0.40;0.40;;;;;;;13.48;100.00;97068.63;4944680;28;20047;-83
2022/10/03 02:35:50;;;;;;;0.40;0.40;;;;;;;13.50;100.00;97082.66;4912146;29;20048;-82
2022/10/03 02:38:31;;;;;;;0.40;0.40;;;;;;;13.50;100.00;97069.09;4896332;29;20052;-84
2022/10/03 02:41:38;;;;;;;0.40;0.40;;;;;;;13.51;100.00;97076.13;4911734;29;20071;-82
2022/10/03 02:44:27;;;;;;;0.40;0.40;;;;;;;13.52;100.00;97064.16;4912106;29;20056;-82
2022/10/03 02:47:38;;;;;;;0.40;0.40;;;;;;;13.53;100.00;97061.16;4913291;29;20495;-84
2022/10/03 02:50:14;;;;;;;0.50;0.50;;;;;;;13.52;100.00;97059.56;4915616;29;20063;-84
2022/10/03 02:53:10;;;;;;;0.45;0.45;;;;;;;13.54;100.00;97061.94;4915725;29;20064;-83
2022/10/03 02:55:56;;;;;;;0.40;0.40;;;;;;;13.54;100.00;97059.22;4915875;29;20060;-84
2022/10/03 02:58:59;;;;;;;0.40;0.40;;;;;;;13.55;100.00;97033.75;4915866;29;20078;-84
2022/10/03 03:01:32;;;;;;;0.40;0.40;;;;;;;13.56;100.00;97051.59;4899797;29;20582;-83
2022/10/03 03:04:31;;;;;;;0.40;0.40;;;;;;;13.58;100.00;97043.97;4915414;29;20750;-83
2022/10/03 03:07:19;;;;;;;0.40;0.40;;;;;;;13.58;100.00;97038.53;4896318;29;20060;-83
2022/10/03 03:10:05;;;;;;;0.40;0.40;;;;;;;13.57;100.00;97028.78;4896599;29;20048;-83
2022/10/03 03:12:57;;;;;;;0.40;0.40;;;;;;;13.62;100.00;97034.91;4944025;29;20070;-84
2022/10/03 03:15:36;;;;;;;0.40;0.40;;;;;;;13.62;100.00;97028.66;4953531;29;20058;-82
2022/10/03 03:18:43;;;;;;;0.40;0.40;;;;;;;13.63;100.00;97052.75;4953252;29;20047;-83
2022/10/03 03:21:31;;;;;;;0.45;0.45;;;;;;;13.63;100.00;97025.63;4936568;29;20051;-83
2022/10/03 03:24:17;;;;;;;0.40;0.40;;;;;;;13.62;100.00;97036.78;4951758;29;21131;-83
2022/10/03 03:27:35;;;;;;;0.40;0.40;;;;;;;13.62;100.00;97012.38;4951975;29;20047;-82
2022/10/03 03:30:20;;;;;;;0.40;0.40;;;;;;;13.59;100.00;97007.59;4914127;29;20059;-83
2022/10/03 03:32:56;;;;;;;0.40;0.40;;;;;;;13.59;100.00;97008.41;4915542;29;20527;-84
2022/10/03 03:35:48;;;;;;;0.40;0.40;;;;;;;13.60;100.00;97020.06;4929587;29;20052;-84
2022/10/03 03:38:26;;;;;;;0.40;0.40;;;;;;;13.59;100.00;97013.03;4914833;29;20048;-83
2022/10/03 03:40:53;;;;;;;0.40;0.40;;;;;;;13.60;100.00;97020.84;4916876;29;20512;-83
2022/10/03 03:43:43;;;;;;;0.40;0.40;;;;;;;13.63;100.00;97020.22;4941559;29;20090;-83
2022/10/03 03:46:19;;;;;;;0.50;0.50;;;;;;;13.65;100.00;97006.38;4923137;29;20423;-81
2022/10/03 03:48:50;;;;;;;0.50;0.50;;;;;;;13.69;100.00;97017.38;4952627;29;20055;-83
2022/10/03 03:51:40;;;;;;;0.40;0.40;;;;;;;13.68;100.00;97016.56;4952377;29;20055;-84
2022/10/03 03:54:44;;;;;;;0.40;0.40;;;;;;;13.67;100.00;96998.69;4951953;29;20522;-85
2022/10/03 03:57:14;;;;;;;0.40;0.40;;;;;;;13.66;100.00;97002.53;4950783;28;20128;-85
2022/10/03 03:59:59;;;;;;;0.40;0.40;;;;;;;13.66;100.00;96984.34;4950504;29;20057;-83
2022/10/03 04:03:20;;;;;;;0.40;0.40;;;;;;;13.66;100.00;96987.06;4931949;29;20055;-84
2022/10/03 04:06:11;;;;;;;0.40;0.40;;;;;;;13.65;100.00;96980.06;4923257;29;20051;-83
2022/10/03 04:08:59;;;;;;;0.40;0.40;;;;;;;13.68;100.00;96959.66;4939629;29;20058;-83
2022/10/03 04:11:36;;;;;;;0.40;0.40;;;;;;;13.67;100.00;96963.47;4949153;29;20051;-84
2022/10/03 04:14:35;;;;;;;0.40;0.40;;;;;;;13.70;100.00;96956.63;4950585;29;20059;-84
2022/10/03 04:20:08;;;;;;;0.40;0.40;;;;;;;13.74;100.00;96955.69;4956123;28;20154;-84
2022/10/03 04:23:14;;;;;;;0.40;0.40;;;;;;;13.79;100.00;96952.03;4945250;29;20538;-85
2022/10/03 04:25:56;;;;;;;;;;;;;;;13.77;100.00;96946.91;4950463;28;20323;-84
2022/10/03 04:29:01;;;;;;;0.40;0.40;;;;;;;13.82;100.00;96951.38;4949584;28;19926;-82
2022/10/03 04:31:31;;;;;;;0.40;0.40;;;;;;;13.84;100.00;96938.31;4929960;29;20066;-85
2022/10/03 04:34:29;;;;;;;0.43;0.43;;;;;;;13.91;100.00;96946.00;4953308;28;20534;-84
2022/10/03 04:37:11;;;;;;;0.40;0.40;;;;;;;13.94;100.00;96948.06;4951546;29;20051;-84
2022/10/03 04:40:03;;;;;;;0.40;0.40;;;;;;;13.95;100.00;96942.34;4935690;29;20078;-83
2022/10/03 04:42:45;;;;;;;0.40;0.40;;;;;;;13.99;100.00;96939.78;4979986;28;20113;-83
2022/10/03 04:45:33;;;;;;;0.40;0.40;;;;;;;14.00;100.00;96947.63;4982039;28;20425;-84
2022/10/03 04:48:06;;;;;;;0.40;0.40;;;;;;;14.00;100.00;96944.09;4982071;28;20053;-83
2022/10/03 04:50:41;;;;;;;0.40;0.40;;;;;;;13.97;100.00;96918.41;4992050;28;20073;-83
2022/10/03 04:53:17;;;;;;;0.40;0.40;;;;;;;13.97;100.00;96901.34;4974223;28;20449;-82
2022/10/03 04:55:50;;;;;;;0.40;0.40;;;;;;;13.96;100.00;96907.88;4991382;28;20046;-83
2022/10/03 04:58:25;;;;;;;0.40;0.40;;;;;;;13.97;100.00;96904.84;4974387;28;20050;-82
2022/10/03 05:01:46;;;;;;;0.40;0.40;;;;;;;13.99;100.00;96899.13;4970266;28;20444;-83
2022/10/03 05:04:28;;;;;;;0.40;0.40;;;;;;;13.98;100.00;96895.59;4947541;29;20408;-82
2022/10/03 05:07:19;;;;;;;0.40;0.40;;;;;;;13.99;100.00;96904.53;4935806;29;20510;-83
2022/10/03 05:09:50;;;;;;;0.40;0.40;;;;;;;13.98;100.00;96900.25;4938790;28;20500;-83
2022/10/03 05:12:30;;;;;;;0.40;0.40;;;;;;;14.02;100.00;96895.75;4946687;29;20059;-82
2022/10/03 05:15:01;;;;;;;0.40;0.40;;;;;;;14.06;100.00;96897.53;4944141;28;20109;-82
2022/10/03 05:18:00;;;;;;;0.40;0.40;;;;;;;14.08;100.00;96881.72;4945231;28;20510;-82
2022/10/03 05:20:46;;;;;;;0.50;0.50;;;;;;;14.11;100.00;96874.88;4946670;29;20051;-83
2022/10/03 05:23:41;;;;;;;0.40;0.40;;;;;;;14.19;100.00;96868.63;4930531;29;20078;-83
2022/10/03 05:26:22;;;;;;;0.40;0.40;;;;;;;14.21;100.00;96866.41;4930630;29;20063;-85
2022/10/03 05:29:16;;;;;;;0.40;0.40;;;;;;;14.25;100.00;96850.28;4946998;29;20122;-83
2022/10/03 05:31:49;;;;;;;0.40;0.40;;;;;;;14.27;100.00;96845.34;4938898;28;20051;-85
2022/10/03 05:34:44;;;;;;;0.40;0.40;;;;;;;14.35;100.00;96841.00;4928376;29;20063;-82
2022/10/03 05:37:29;;;;;;;0.30;0.30;;;;;;;14.34;100.00;96839.44;4941089;28;20050;-83
2022/10/03 05:40:02;;;;;;;0.40;0.40;;;;;;;14.30;100.00;96848.22;4961747;28;20113;-84
2022/10/03 05:42:43;;;;;;;0.47;0.47;;;;;;;14.29;100.00;96860.19;4981108;28;20060;-82
2022/10/03 05:45:31;;;;;;;0.40;0.40;;;;;;;14.30;100.00;96842.78;4967925;28;20054;-82
2022/10/03 05:48:18;;;;;;;0.40;0.40;;;;;;;14.30;100.00;96842.78;4998050;28;20101;-82
2022/10/03 05:51:12;;;;;;;0.40;0.40;;;;;;;14.31;100.00;96860.66;4994927;28;20050;-82
2022/10/03 05:54:20;;;;;;;0.40;0.40;;;;;;;14.34;100.00;96844.88;4989993;28;20089;-82
2022/10/03 05:57:11;;;;;;;0.40;0.40;;;;;;;14.37;100.00;96841.50;4944416;28;20390;-82
2022/10/03 06:00:06;;;;;;;0.40;0.40;;;;;;;14.32;100.00;96826.19;4990305;28;20054;-81
2022/10/03 06:02:53;;;;;;;0.35;0.35;;;;;;;14.31;100.00;96838.94;4991704;28;20050;-82
2022/10/03 06:05:26;;;;;;;0.40;0.40;;;;;;;14.31;100.00;96830.81;4989816;28;20062;-82
2022/10/03 06:08:11;;;;;;;0.40;0.40;;;;;;;14.32;100.00;96818.03;4973903;28;20047;-81
2022/10/03 06:10:59;;;;;;;0.30;0.30;;;;;;;14.29;100.00;96778.00;4974040;28;20424;-80
2022/10/03 06:14:23;;;;;;;0.40;0.40;;;;;;;14.22;100.00;96802.09;4990472;28;20057;-81
2022/10/03 06:17:14;;;;;;;0.40;0.40;;;;;;;14.17;100.00;96816.63;4968745;28;20137;-82
2022/10/03 06:19:51;;;;;;;0.40;0.40;;;;;;;14.15;100.00;96824.28;4969149;28;20061;-81
2022/10/03 06:22:45;;;;;;;0.40;0.40;;;;;;;14.15;100.00;96812.63;4968900;28;20054;-82
2022/10/03 06:25:33;;;;;;;0.40;0.40;;;;;;;14.16;100.00;96806.91;4969127;28;20058;-82
2022/10/03 06:28:23;;;;;;;0.40;0.40;;;;;;;14.18;100.00;96826.38;4952775;28;20481;-82
2022/10/03 06:30:56;;;;;;;0.40;0.40;;;;;;;14.16;100.00;96800.69;4953206;28;20154;-80
2022/10/03 06:33:29;;;;;;;0.40;0.40;;;;;;;14.16;100.00;96817.75;4969070;28;20051;-82
2022/10/03 06:36:19;;;;;;;0.40;0.40;;;;;;;14.16;100.00;96785.19;4969038;28;20115;-81
2022/10/03 06:39:10;;;;;;;0.40;0.40;;;;;;;14.10;100.00;96816.31;4968596;28;20121;-81
2022/10/03 06:41:41;;;;;;;0.40;0.40;;;;;;;14.01;100.00;96823.66;4968829;28;20054;-80
2022/10/03 06:44:25;;;;;;;0.40;0.40;;;;;;;13.96;100.00;96824.63;4969007;28;20098;-80
2022/10/03 06:46:56;;;;;;;0.40;0.40;;;;;;;13.93;100.00;96833.41;4959547;28;20145;-81
2022/10/03 06:49:37;;;;;;;0.40;0.40;;;;;;;13.94;100.00;96836.91;4990820;28;20058;-82
2022/10/03 06:52:32;;;;;;;0.40;0.40;;;;;;;13.92;100.00;96814.72;4990691;28;20081;-82
2022/10/03 06:55:32;;;;;;;0.40;0.40;;;;;;;13.84;100.00;96835.31;4990677;28;20050;-82
2022/10/03 06:58:35;;;;;;;0.40;0.40;;;;;;;13.75;100.00;96851.56;4990756;28;20493;-81
2022/10/03 07:01:11;;;;;;;0.40;0.40;;;;;;;13.67;100.00;96846.91;4990652;28;20056;-81
2022/10/03 07:04:11;;;;;;;0.40;0.40;;;;;;;13.61;100.00;96840.84;4972879;28;20051;-81
2022/10/03 07:06:57;;;;;;;0.40;0.40;;;;;;;13.54;100.00;96818.03;4990811;28;20482;-81
2022/10/03 07:10:05;;;;;;;0.40;0.40;;;;;;;13.52;100.00;96839.25;4990546;28;20039;-82
2022/10/03 07:13:06;;;;;;;0.40;0.40;;;;;;;13.50;100.00;96817.91;4987876;28;20499;-82
2022/10/03 07:15:51;;;;;;;0.40;0.40;;;;;;;13.47;100.00;96847.53;5005638;28;20054;-82
2022/10/03 07:19:06;;;;;;;0.40;0.40;;;;;;;13.41;100.00;96839.53;4990660;28;20046;-81
2022/10/03 07:22:12;;;;;;;0.50;0.50;;;;;;;13.43;100.00;96841.94;4990762;28;20050;-81
2022/10/03 07:25:25;;;;;;;0.40;0.40;;;;;;;13.38;100.00;96847.50;4988938;28;20046;-80
2022/10/03 07:27:59;;;;;;;0.40;0.40;;;;;;;13.39;100.00;96836.38;4990326;28;20047;-82
2022/10/03 07:30:45;;;;;;;0.40;0.40;;;;;;;13.36;100.00;96828.84;4988984;28;20509;-82
2022/10/03 07:33:43;;;;;;;0.50;0.50;;;;;;;13.33;100.00;96837.63;4992102;28;20046;-82
2022/10/03 07:39:26;;;;;;;0.50;0.50;;;;;;;13.35;100.00;96835.41;4993959;28;20050;-81
2022/10/03 07:42:12;;;;;;;0.50;0.50;;;;;;;13.36;100.00;96830.78;4993750;28;20521;-81
2022/10/03 07:44:57;;;;;;;0.50;0.50;;;;;;;13.35;100.00;96840.81;4993203;28;20141;-81
2022/10/03 07:47:44;;;;;;;0.40;0.40;;;;;;;13.31;100.00;96845.25;4993852;28;20524;-81
2022/10/03 07:50:36;;;;;;;0.40;0.40;;;;;;;13.26;100.00;96879.78;4993285;28;20413;-82
2022/10/03 07:53:18;;;;;;;0.40;0.40;;;;;;;13.09;100.00;96896.75;4991257;28;20144;-81
2022/10/03 07:56:04;;;;;;;0.50;0.50;;;;;;;12.76;100.00;96899.78;4992319;28;20501;-87
2022/10/03 07:58:54;;;;;;;0.40;0.40;;;;;;;12.27;100.00;96910.44;4991686;28;20548;-80
2022/10/03 08:01:47;;;;;;;0.47;0.47;;;;;;;11.95;100.00;96919.56;4976837;28;20064;-83
2022/10/03 08:05:01;;;;;;;0.50;0.50;;;;;;;11.93;100.00;96916.34;4976273;28;20081;-82
2022/10/03 08:07:45;;;;;;;0.50;0.50;;;;;;;11.78;100.00;96914.75;4997577;28;20050;-83
2022/10/03 08:10:15;;;;;;;0.50;0.50;;;;;;;11.88;100.00;96903.75;4989587;28;20073;-81
2022/10/03 08:13:01;;;;;;;0.50;0.50;;;;;;;11.98;100.00;96910.84;4986874;28;20054;-81
2022/10/03 08:15:44;;;;;;;0.50;0.50;;;;;;;11.91;100.00;96927.47;4882934;28;10001331;-83
2022/10/03 08:18:35;;;;;;;0.50;0.50;;;;;;;11.76;100.00;96932.38;4988323;28;20889;-83
2022/10/03 08:21:37;;;;;;;0.50;0.50;;;;;;;11.73;100.00;96922.97;4969843;28;20508;-81
2022/10/03 08:24:26;;;;;;;0.50;0.50;;;;;;;11.64;100.00;96928.25;4969890;28;20568;-82
2022/10/03 08:27:00;;;;;;;0.50;0.50;;;;;;;11.62;100.00;96924.25;4939438;28;20513;-81
2022/10/03 08:29:45;;;;;;;0.50;0.50;;;;;;;11.73;100.00;96924.88;4945905;28;20050;-82
2022/10/03 08:32:31;;;;;;;0.50;0.50;;;;;;;11.83;100.00;96927.38;4969102;28;20305;-83
2022/10/03 08:35:20;;;;;;;0.50;0.50;;;;;;;11.92;100.00;96920.16;4969470;28;20397;-82
2022/10/03 08:38:20;;;;;;;0.50;0.50;;;;;;;12.04;100.00;96912.31;4969745;28;20058;-83
2022/10/03 08:40:59;;;;;;;0.50;0.50;;;;;;;12.15;100.00;96918.28;4987098;28;20061;-83
2022/10/03 08:43:50;;;;;;;0.50;0.50;;;;;;;12.29;100.00;96929.06;4988841;28;20065;-83
2022/10/03 08:46:36;;;;;;;0.47;0.47;;;;;;;12.38;100.00;96921.00;4984561;28;20128;-83
2022/10/03 08:49:22;;;;;;;0.50;0.50;;;;;;;12.51;100.00;96926.38;4988351;28;20050;-81
2022/10/03 08:51:52;;;;;;;0.50;0.50;;;;;;;12.57;100.00;96944.06;4970202;28;20050;-84
2022/10/03 08:54:26;;;;;;;0.50;0.50;;;;;;;12.61;100.00;96948.88;4988745;28;20074;-84
2022/10/03 08:57:05;;;;;;;0.40;0.40;;;;;;;12.60;100.00;96948.06;4974154;28;20265;-82
2022/10/03 08:59:50;;;;;;;0.43;0.43;;;;;;;12.56;100.00;96945.19;4988838;28;20129;-84
2022/10/03 09:02:30;;;;;;;0.50;0.50;;;;;;;12.56;100.00;96941.69;4979820;28;20544;-83
2022/10/03 09:05:15;;;;;;;0.40;0.40;;;;;;;12.61;100.00;96936.16;4983118;28;20065;-88
2022/10/03 09:08:00;;;;;;;0.50;0.50;;;;;;;12.61;100.00;96941.56;4989740;28;20109;-84
2022/10/03 09:11:04;;;;;;;0.50;0.50;;;;;;;12.67;100.00;96936.81;4986961;28;20046;-83
2022/10/03 09:13:57;;;;;;;0.50;0.50;;;;;;;12.77;100.00;96929.25;4977474;28;20055;-82
2022/10/03 09:16:30;;;;;;;0.50;0.50;;;;;;;12.83;100.00;96940.75;4960249;28;20149;-82
2022/10/03 09:19:00;;;;;;;0.50;0.50;;;;;;;12.92;100.00;96938.91;4963963;28;20125;-83
2022/10/03 09:21:45;;;;;;;0.50;0.50;;;;;;;12.96;100.00;96948.00;4968695;28;20074;-84
2022/10/03 09:24:41;;;;;;;0.50;0.50;;;;;;;12.94;100.00;96955.63;4964154;28;20061;-83
2022/10/03 09:27:27;;;;;;;0.50;0.50;;;;;;;12.93;100.00;96956.72;4967722;28;20053;-82
2022/10/03 09:30:20;;;;;;;0.50;0.50;;;;;;;13.00;100.00;96948.97;4960025;28;20054;-83
2022/10/03 09:33:11;;;;;;;0.50;0.50;;;;;;;13.01;100.00;96956.00;4945545;29;20070;-82
2022/10/03 09:35:59;;;;;;;0.50;0.50;;;;;;;12.96;100.00;96947.19;4966165;28;20437;-83
2022/10/03 09:38:29;;;;;;;0.50;0.50;;;;;;;12.95;100.00;96957.22;4958191;28;20421;-82
2022/10/03 09:41:39;;;;;;;0.40;0.40;;;;;;;13.00;100.00;96970.63;4957966;28;20054;-84
2022/10/03 09:44:25;;;;;;;0.40;0.40;;;;;;;13.00;100.00;96976.03;4955850;28;20548;-84
2022/10/03 09:50:06;;;;;;;0.50;0.50;;;;;;;12.71;100.00;96986.50;4963309;28;20437;-83
2022/10/03 09:53:08;;;;;;;0.40;0.40;;;;;;;12.67;100.00;96991.75;4964753;28;20122;-83
2022/10/03 09:56:00;;;;;;;0.50;0.50;;;;;;;12.58;100.00;97010.63;4957465;28;20055;-84
2022/10/03 09:58:54;;;;;;;0.50;0.50;;;;;;;12.45;100.00;97003.34;4935329;29;20426;-84
2022/10/03 10:02:15;;;;;;;0.50;0.50;;;;;;;12.33;100.00;97003.06;4923790;29;20082;-82
2022/10/03 10:04:52;;;;;;;0.50;0.50;;;;;;;12.27;100.00;96998.88;4910402;29;20071;-83
2022/10/03 10:07:24;;;;;;;0.50;0.50;;;;;;;12.22;100.00;97005.19;4896853;29;20080;-82
2022/10/03 10:10:29;;;;;;;0.50;0.50;;;;;;;11.94;100.00;97031.47;4921808;29;20054;-82
2022/10/03 10:13:11;;;;;;;0.50;0.50;;;;;;;11.71;100.00;97020.53;4914868;29;20518;-81
2022/10/03 10:15:58;;;;;;;0.50;0.50;;;;;;;11.48;100.00;97014.22;4919170;29;20058;-83
2022/10/03 10:18:31;;;;;;;0.40;0.40;;;;;;;11.46;100.00;97029.91;4922092;29;20059;-83
2022/10/03 10:21:35;;;;;;;0.50;0.50;;;;;;;11.51;100.00;97031.72;4897052;29;20052;-83
2022/10/03 10:24:37;;;;;;;0.60;0.60;;;;;;;11.52;100.00;97014.44;4907987;29;20064;-82
2022/10/03 10:27:07;;;;;;;0.50;0.50;;;;;;;11.62;100.00;97041.25;4922109;29;20078;-82
2022/10/03 10:30:25;;;;;;;0.50;0.50;;;;;;;11.87;100.00;97031.06;4925289;29;20051;-84
2022/10/03 10:33:01;;;;;;;0.60;0.60;;;;;;;12.12;98.86;97052.19;4920518;29;20584;-82
2022/10/03 10:35:55;;;;;;;0.50;0.50;;;;;;;12.19;97.10;97042.88;4906009;29;20056;-83
2022/10/03 10:38:38;;;;;;;0.50;0.50;;;;;;;12.13;96.40;97051.09;4936957;29;20146;-83
2022/10/03 10:41:44;;;;;;;0.50;0.50;;;;;;;12.11;95.80;97085.75;4917216;29;20415;-83
2022/10/03 10:44:34;;;;;;;0.50;0.50;;;;;;;11.96;94.89;97056.31;4949433;28;20078;-82
2022/10/03 10:47:16;;;;;;;0.50;0.50;;;;;;;11.82;95.05;97063.56;4928996;29;20059;-82
2022/10/03 10:50:11;;;;;;;0.50;0.50;;;;;;;11.68;94.11;97053.56;4944892;29;20065;-83
2022/10/03 10:52:41;;;;;;;0.50;0.50;;;;;;;11.60;93.53;97097.50;4947141;28;20051;-83
2022/10/03 10:55:35;;;;;;;0.50;0.50;;;;;;;11.54;92.07;97087.84;4936391;28;20047;-84
2022/10/03 10:58:39;;;;;;;0.50;0.50;;;;;;;11.46;91.95;97099.34;4942830;29;20433;-83
2022/10/03 11:01:43;;;;;;;0.60;0.60;;;;;;;11.53;90.81;97090.88;4945789;29;20090;-83
2022/10/03 11:04:30;;;;;;;0.50;0.50;;;;;;;11.60;90.06;97083.19;4931320;29;20055;-84
2022/10/03 11:07:27;;;;;;;0.50;0.50;;;;;;;11.52;89.83;97121.66;4923745;28;20087;-83
2022/10/03 11:10:31;;;;;;;0.47;0.47;;;;;;;11.48;90.55;97102.56;4972166;28;20061;-84
2022/10/03 11:13:21;;;;;;;0.50;0.50;;;;;;;11.41;90.63;97134.53;4981652;28;20160;-83
2022/10/03 11:15:53;;;;;;;0.50;0.50;;;;;;;11.37;91.01;97136.22;4983310;28;20058;-84
2022/10/03 11:18:26;;;;;;;0.60;0.60;;;;;;;11.35;91.39;97138.44;4984195;28;20582;-81
2022/10/03 11:21:10;;;;;;;0.50;0.50;;;;;;;11.40;91.93;97149.97;4993779;28;20097;-82
2022/10/03 11:24:05;;;;;;;0.55;0.55;;;;;;;11.45;91.21;97152.56;4994030;28;20062;-81
2022/10/03 11:27:06;;;;;;;0.52;0.52;;;;;;;11.43;88.95;97118.84;4994218;28;20097;-82
2022/10/03 11:30:02;;;;;;;0.50;0.50;;;;;;;11.33;85.42;97144.13;4993507;28;20158;-82
2022/10/03 11:32:58;;;;;;;0.60;0.60;;;;;;;11.40;84.45;97184.28;4999172;28;20052;-81
2022/10/03 11:35:51;;;;;;;0.60;0.60;;;;;;;11.57;83.10;97162.94;4992688;28;20062;-82
2022/10/03 11:38:23;;;;;;;0.75;0.75;;;;;;;12.29;79.42;97161.66;4976393;28;20058;-83
2022/10/03 11:41:08;;;;;;;0.60;0.60;;;;;;;12.16;78.41;97173.28;4975203;28;20157;-82
2022/10/03 11:43:54;;;;;;;0.57;0.57;;;;;;;11.61;79.16;97172.03;4983953;28;20343;-82
2022/10/03 11:46:53;;;;;;;0.52;0.52;;;;;;;11.25;79.06;97145.59;4991745;28;20164;-84
2022/10/03 11:49:48;;;;;;;0.60;0.60;;;;;;;11.20;79.73;97164.59;4970439;28;20060;-82
2022/10/03 11:52:33;;;;;;;0.50;0.50;;;;;;;11.10;79.56;97199.81;4986923;28;20403;-83
2022/10/03 11:55:06;;;;;;;;;;;;;;;11.02;79.38;97208.59;4977790;28;20426;-82
2022/10/03 11:57:37;;;;;;;0.60;0.60;;;;;;;11.09;78.84;97205.50;4986189;28;20025;-82
2022/10/03 12:00:25;;;;;;;0.60;0.60;;;;;;;11.35;78.48;97206.75;4985370;28;20054;-84
2022/10/03 12:03:03;;;;;;;0.60;0.60;;;;;;;11.81;75.68;97221.44;4978284;28;20046;-82
2022/10/03 12:08:53;;;;;;;0.55;0.55;;;;;;;11.76;73.36;97230.44;4976648;28;20050;-83
2022/10/03 12:08:53;;;;;;;0.60;0.60;;;;;;;11.75;72.16;97258.56;4973052;28;20054;-82
2022/10/03 12:11:32;;;;;;;0.60;0.60;;;;;;;11.77;70.47;97285.28;4990022;28;20085;-82
2022/10/03 12:14:09;;;;;;;0.53;0.53;;;;;;;11.66;70.61;97253.00;4643669;28;9999779;-82
2022/10/03 12:17:14;;;;;;;0.50;0.50;;;;;;;11.32;69.20;97206.53;4968860;28;20050;-83
2022/10/03 12:20:19;;;;;;;0.50;0.50;;;;;;;10.92;70.79;97276.19;4984698;28;20465;-82
2022/10/03 12:22:53;;;;;;;0.50;0.50;;;;;;;10.69;72.24;97231.94;4989014;28;20050;-81
2022/10/03 12:25:22;;;;;;;0.50;0.50;;;;;;;10.51;73.34;97301.75;4969297;28;20050;-81
2022/10/03 12:28:14;;;;;;;0.60;0.60;;;;;;;10.37;75.60;97293.50;4981161;28;20133;-83
2022/10/03 12:30:56;;;;;;;0.60;0.60;;;;;;;10.61;76.25;97293.53;4940128;28;20047;-84
2022/10/03 12:33:36;;;;;;;0.60;0.60;;;;;;;10.58;76.61;97317.56;4950832;29;20102;-84
2022/10/03 12:36:32;;;;;;;0.70;0.70;;;;;;;10.66;76.42;97292.69;4947424;29;20482;-83
2022/10/03 12:39:15;;;;;;;0.70;0.70;;;;;;;10.70;76.32;97301.78;4911036;29;20673;-82
2022/10/03 12:42:00;;;;;;;0.70;0.70;;;;;;;10.65;75.97;97326.13;4942312;28;20537;-82
2022/10/03 12:44:58;;;;;;;0.60;0.60;;;;;;;10.48;74.44;97341.94;4933124;29;20052;-83
2022/10/03 12:47:29;;;;;;;0.60;0.60;;;;;;;10.31;73.32;97337.00;4931484;29;20059;-82
2022/10/03 12:50:58;;;;;;;0.60;0.60;;;;;;;10.27;72.13;97325.91;4943868;29;20055;-84
2022/10/03 12:53:25;;;;;;;0.50;0.50;;;;;;;10.09;72.44;97345.50;4945499;29;20062;-82
2022/10/03 12:56:06;;;;;;;0.50;0.50;;;;;;;9.97;73.38;97359.31;4948045;29;20050;-84
2022/10/03 12:58:48;;;;;;;0.55;0.55;;;;;;;9.88;73.53;97369.09;4925385;29;20060;-84
2022/10/03 13:01:20;;;;;;;0.50;0.50;;;;;;;9.80;72.72;97353.50;4950722;28;20062;-83
2022/10/03 13:04:17;;;;;;;0.60;0.60;;;;;;;9.73;72.97;97380.78;4950520;29;20065;-84
2022/10/03 13:07:12;;;;;;;0.60;0.60;;;;;;;9.55;70.17;97399.16;4952609;28;20053;-82
2022/10/03 13:10:13;;;;;;;0.70;0.70;;;;;;;9.59;70.25;97379.75;4974717;28;20058;-81
2022/10/03 13:12:49;;;;;;;1.30;1.20;;;;;;;11.79;64.13;97369.56;4991648;28;20081;-82
2022/10/03 13:15:52;;;;;;;1.10;1.10;;;;;;;12.91;59.07;97394.84;4991041;28;20552;-84